Time;durP1;ratioP1;P1;durP2;ratioP2;P2;SDS_P1;SDS_P2;PMS_P1;PMS_P2;Temp;Humidity;BMP_temperature;BMP_pressure;BME280_temperature;BME280_humidity;BME280_pressure;Samples;Min_cycle;Max_cycle;Signal;HPM_P1;HPM_P2
2022/10/24 01:31:51;;;;;;;15.53;14.33;;;17.50;99.90;;;;;;5023841;23;20582;-73
2022/10/24 01:34:25;;;;;;;14.30;13.33;;;17.50;99.90;;;;;;4971795;28;20455;-72
2022/10/24 01:37:00;;;;;;;14.80;13.83;;;17.50;99.90;;;;;;4970883;28;20531;-72
2022/10/24 01:39:31;;;;;;;15.10;13.90;;;17.50;99.90;;;;;;4971607;28;20459;-72
2022/10/24 01:42:00;;;;;;;15.17;13.80;;;17.50;99.90;;;;;;4971285;28;20451;-73
2022/10/24 01:44:31;;;;;;;15.50;14.03;;;17.50;99.90;;;;;;4971223;28;21030;-73
2022/10/24 01:47:05;;;;;;;15.27;14.07;;;17.50;99.90;;;;;;4971200;28;20452;-73
2022/10/24 01:49:33;;;;;;;13.20;12.40;;;17.50;99.90;;;;;;4971439;28;20460;-72
2022/10/24 01:52:03;;;;;;;16.10;14.80;;;17.60;99.90;;;;;;4971393;28;20447;-73
2022/10/24 01:54:32;;;;;;;15.00;13.70;;;17.60;99.90;;;;;;4971189;28;20456;-73
2022/10/24 01:56:59;;;;;;;14.80;13.90;;;;;;;;;;4970941;28;20463;-73
2022/10/24 01:59:44;;;;;;;15.33;13.80;;;17.60;99.90;;;;;;4971051;28;20455;-73
2022/10/24 02:02:16;;;;;;;14.63;13.83;;;17.60;99.90;;;;;;4971049;28;20815;-72
2022/10/24 02:04:48;;;;;;;15.83;14.77;;;17.70;99.90;;;;;;4971085;28;20451;-73
2022/10/24 02:07:19;;;;;;;14.40;13.53;;;17.70;99.90;;;;;;4971158;28;20796;-73
2022/10/24 02:09:48;;;;;;;13.83;12.83;;;17.70;99.90;;;;;;4971141;28;20448;-72
2022/10/24 02:12:16;;;;;;;12.47;11.47;;;17.70;99.90;;;;;;4971078;28;20818;-73
2022/10/24 02:14:47;;;;;;;13.93;13.03;;;17.70;99.90;;;;;;4970823;28;20451;-73
2022/10/24 02:17:15;;;;;;;13.40;12.53;;;17.70;99.90;;;;;;4970892;28;20466;-73
2022/10/24 02:19:43;;;;;;;13.10;12.40;;;17.80;99.90;;;;;;4970657;28;20972;-74
2022/10/24 02:22:19;;;;;;;13.23;12.53;;;17.80;99.90;;;;;;4970809;28;20813;-75
2022/10/24 02:24:52;;;;;;;14.57;13.43;;;17.80;99.90;;;;;;4971089;28;20451;-73
2022/10/24 02:27:22;;;;;;;15.07;13.97;;;17.70;99.90;;;;;;4970867;28;20456;-73
2022/10/24 02:29:53;;;;;;;14.10;13.17;;;17.70;99.90;;;;;;4970735;28;20479;-73
2022/10/24 02:32:27;;;;;;;14.90;13.97;;;17.70;99.90;;;;;;4971118;28;20458;-72
2022/10/24 02:34:56;;;;;;;13.70;12.87;;;17.60;99.90;;;;;;4973026;28;20455;-72
2022/10/24 02:37:25;;;;;;;14.43;13.03;;;17.70;99.90;;;;;;4970567;28;20953;-71
2022/10/24 02:39:53;;;;;;;13.77;12.87;;;17.70;99.90;;;;;;4970537;28;20460;-72
2022/10/24 02:42:22;;;;;;;14.40;13.40;;;17.80;99.90;;;;;;4971071;28;20471;-72
2022/10/24 02:44:49;;;;;;;13.30;12.47;;;17.90;99.90;;;;;;4971020;28;20458;-72
2022/10/24 02:47:18;;;;;;;13.13;12.20;;;17.90;99.90;;;;;;4970791;28;20447;-73
2022/10/24 02:49:47;;;;;;;13.33;12.73;;;17.90;99.90;;;;;;4973843;28;20860;-73
2022/10/24 02:52:14;;;;;;;13.47;12.33;;;18.00;99.90;;;;;;4974360;28;20907;-73
2022/10/24 02:54:41;;;;;;;13.37;12.53;;;18.00;99.90;;;;;;4974371;28;20452;-73
2022/10/24 02:57:08;;;;;;;14.80;14.00;;;18.00;99.90;;;;;;4974347;28;20451;-72
2022/10/24 02:59:35;;;;;;;16.43;15.23;;;18.00;99.90;;;;;;4974192;28;20816;-73
2022/10/24 03:02:01;;;;;;;16.00;14.70;;;17.90;99.90;;;;;;4974514;28;20451;-73
2022/10/24 03:04:28;;;;;;;16.77;15.67;;;17.90;99.90;;;;;;4974040;28;20463;-72
2022/10/24 03:06:56;;;;;;;16.50;15.50;;;17.80;99.90;;;;;;4975282;28;20452;-73
2022/10/24 03:09:23;;;;;;;15.17;14.27;;;17.80;99.90;;;;;;4975602;28;20496;-73
2022/10/24 03:11:50;;;;;;;15.17;14.37;;;17.80;99.90;;;;;;4974495;28;20460;-72
2022/10/24 03:14:16;;;;;;;15.40;14.20;;;17.80;99.90;;;;;;4974502;28;20455;-72
2022/10/24 03:16:43;;;;;;;15.30;14.20;;;17.80;99.90;;;;;;4974073;28;20460;-72
2022/10/24 03:19:10;;;;;;;15.13;13.70;;;17.80;99.90;;;;;;4973925;28;20455;-73
2022/10/24 03:21:37;;;;;;;15.27;14.33;;;17.80;99.90;;;;;;4973874;28;20459;-72
2022/10/24 03:24:05;;;;;;;15.70;14.50;;;17.90;99.90;;;;;;4974163;28;20451;-72
2022/10/24 03:26:32;;;;;;;15.67;14.50;;;17.80;99.90;;;;;;4974098;28;20447;-72
2022/10/24 03:28:59;;;;;;;16.10;14.53;;;17.80;99.90;;;;;;4973650;28;20487;-73
2022/10/24 03:31:25;;;;;;;15.90;14.47;;;17.80;99.90;;;;;;4973496;28;21219;-73
2022/10/24 03:33:52;;;;;;;14.80;13.73;;;17.80;99.90;;;;;;4973591;28;20801;-73
2022/10/24 03:36:19;;;;;;;15.20;14.10;;;17.80;99.90;;;;;;4973869;28;20462;-73
2022/10/24 03:38:46;;;;;;;15.50;13.90;;;17.80;99.90;;;;;;4973699;28;20444;-73
2022/10/24 03:41:14;;;;;;;14.93;13.87;;;17.80;99.90;;;;;;4973500;28;20456;-72
2022/10/24 03:43:40;;;;;;;15.07;13.97;;;17.80;99.90;;;;;;4973392;28;20443;-72
2022/10/24 03:46:07;;;;;;;15.60;14.20;;;17.80;99.90;;;;;;4973284;28;20965;-73
2022/10/24 03:48:34;;;;;;;16.17;15.27;;;17.80;99.90;;;;;;4973460;28;20488;-73
2022/10/24 03:51:00;;;;;;;14.73;13.67;;;17.80;99.90;;;;;;4973193;28;20458;-73
2022/10/24 03:53:27;;;;;;;14.03;13.00;;;17.80;99.90;;;;;;4973181;28;20456;-73
2022/10/24 03:55:55;;;;;;;14.97;13.83;;;17.80;99.90;;;;;;4973352;28;20455;-73
2022/10/24 03:58:23;;;;;;;15.77;14.57;;;17.80;99.90;;;;;;4973290;28;20460;-73
2022/10/24 04:00:50;;;;;;;15.00;14.00;;;17.80;99.90;;;;;;4972394;28;20455;-73
2022/10/24 04:03:17;;;;;;;15.63;14.30;;;17.70;99.90;;;;;;4973561;28;20511;-72
2022/10/24 04:05:44;;;;;;;14.90;13.90;;;17.60;99.90;;;;;;4973020;28;20969;-72
2022/10/24 04:08:10;;;;;;;15.00;14.03;;;17.60;99.90;;;;;;4972741;28;20491;-72
2022/10/24 04:10:37;;;;;;;14.63;13.80;;;17.60;99.90;;;;;;4972955;28;20811;-73
2022/10/24 04:13:04;;;;;;;15.20;14.13;;;17.50;99.90;;;;;;4973145;28;20447;-72
2022/10/24 04:15:32;;;;;;;14.30;13.40;;;17.60;99.90;;;;;;4972965;28;20452;-73
2022/10/24 04:17:58;;;;;;;14.70;13.43;;;17.60;99.90;;;;;;4972768;28;20451;-72
2022/10/24 04:20:25;;;;;;;14.30;13.60;;;17.60;99.90;;;;;;4972610;28;20478;-73
2022/10/24 04:22:52;;;;;;;15.00;13.80;;;17.60;99.90;;;;;;4972446;28;20459;-72
2022/10/24 04:25:19;;;;;;;14.77;14.00;;;17.60;99.90;;;;;;4972934;28;20447;-73
2022/10/24 04:27:45;;;;;;;14.33;13.20;;;17.60;99.90;;;;;;4972569;28;20891;-72
2022/10/24 04:30:14;;;;;;;16.10;14.90;;;17.60;99.90;;;;;;4972184;28;20498;-73
2022/10/24 04:32:42;;;;;;;14.77;13.73;;;17.70;99.90;;;;;;4972373;28;20447;-73
2022/10/24 04:35:09;;;;;;;21.80;15.77;;;17.60;99.90;;;;;;4972333;28;20479;-73
2022/10/24 04:37:36;;;;;;;15.70;14.13;;;17.60;99.90;;;;;;4972472;28;20459;-72
2022/10/24 04:40:03;;;;;;;15.37;14.17;;;17.60;99.90;;;;;;4972760;28;20447;-72
2022/10/24 04:42:30;;;;;;;14.80;13.90;;;17.60;99.90;;;;;;4972280;28;20459;-72
2022/10/24 04:44:57;;;;;;;14.83;13.83;;;17.60;99.90;;;;;;4972229;28;20451;-72
2022/10/24 04:47:23;;;;;;;13.13;12.37;;;17.60;99.90;;;;;;4972104;28;20801;-73
2022/10/24 04:49:51;;;;;;;14.93;13.73;;;17.70;99.90;;;;;;4972608;28;20845;-73
2022/10/24 04:52:18;;;;;;;15.80;14.63;;;17.70;99.90;;;;;;4974407;28;20451;-72
2022/10/24 04:54:45;;;;;;;15.47;14.10;;;17.70;99.90;;;;;;4974159;28;20475;-72
2022/10/24 04:57:12;;;;;;;14.87;13.83;;;17.70;99.90;;;;;;4975281;28;20982;-71
2022/10/24 04:59:38;;;;;;;15.80;14.50;;;17.60;99.90;;;;;;4972079;28;20451;-72
2022/10/24 05:02:05;;;;;;;18.07;16.10;;;17.40;99.90;;;;;;4972922;28;20455;-73
2022/10/24 05:04:32;;;;;;;16.93;15.53;;;17.40;99.90;;;;;;4971931;28;20452;-73
2022/10/24 05:07:00;;;;;;;19.47;18.07;;;17.40;99.90;;;;;;4971871;28;20468;-73
2022/10/24 05:09:27;;;;;;;19.30;17.60;;;17.40;99.90;;;;;;4971914;28;20487;-73
2022/10/24 05:11:55;;;;;;;18.17;16.97;;;17.40;99.90;;;;;;4971570;28;20463;-73
2022/10/24 05:14:22;;;;;;;18.57;16.80;;;17.40;99.90;;;;;;4971706;28;20459;-73
2022/10/24 05:16:49;;;;;;;18.63;16.97;;;17.40;99.90;;;;;;4971867;28;20485;-73
2022/10/24 05:19:15;;;;;;;17.27;15.57;;;17.40;99.90;;;;;;4971845;28;20798;-73
2022/10/24 05:21:43;;;;;;;19.37;17.00;;;17.30;99.90;;;;;;4971777;28;20464;-73
2022/10/24 05:24:11;;;;;;;16.80;15.60;;;17.30;99.90;;;;;;4971470;28;20455;-72
2022/10/24 05:26:37;;;;;;;19.10;16.30;;;17.30;99.90;;;;;;4971628;28;20451;-73
2022/10/24 05:29:04;;;;;;;17.07;15.87;;;17.40;99.90;;;;;;4971669;28;20520;-74
2022/10/24 05:31:31;;;;;;;18.53;16.93;;;17.40;99.90;;;;;;4971471;28;21031;-73
2022/10/24 05:33:58;;;;;;;17.90;16.70;;;17.40;99.90;;;;;;4971502;28;20462;-73
2022/10/24 05:36:25;;;;;;;17.23;16.00;;;17.40;99.90;;;;;;4971364;28;20459;-72
2022/10/24 05:38:51;;;;;;;18.53;16.90;;;17.40;99.90;;;;;;4971305;28;20452;-74
2022/10/24 05:41:19;;;;;;;18.40;17.10;;;17.30;99.90;;;;;;4971648;28;20470;-75
2022/10/24 05:43:46;;;;;;;20.73;18.40;;;17.10;99.90;;;;;;4971487;28;20462;-75
2022/10/24 05:46:13;;;;;;;19.13;17.30;;;17.10;99.90;;;;;;4971187;28;20452;-76
2022/10/24 05:48:39;;;;;;;19.40;17.43;;;17.10;99.90;;;;;;4970425;28;20603;-74
2022/10/24 05:51:06;;;;;;;19.07;17.50;;;17.10;99.90;;;;;;4971337;28;20451;-74
2022/10/24 05:53:33;;;;;;;17.10;15.97;;;17.10;99.90;;;;;;4971402;28;20462;-73
2022/10/24 05:55:59;;;;;;;17.20;16.10;;;17.20;99.90;;;;;;4971093;28;20459;-73
2022/10/24 05:58:27;;;;;;;17.13;15.83;;;17.20;99.90;;;;;;4970870;28;20459;-73
2022/10/24 06:00:54;;;;;;;17.07;14.80;;;17.40;99.90;;;;;;4970988;28;20450;-74
2022/10/24 06:03:21;;;;;;;17.73;16.23;;;17.60;99.90;;;;;;4971051;28;20501;-73
2022/10/24 06:05:48;;;;;;;14.60;13.70;;;17.70;99.90;;;;;;4971086;28;20474;-73
2022/10/24 06:08:15;;;;;;;16.30;15.17;;;17.90;99.90;;;;;;4970974;28;20447;-71
2022/10/24 06:10:41;;;;;;;15.57;14.47;;;18.00;99.90;;;;;;4970926;28;20463;-72
2022/10/24 06:13:08;;;;;;;16.70;15.60;;;18.10;99.90;;;;;;4970871;28;20458;-73
2022/10/24 06:15:36;;;;;;;18.20;17.03;;;18.20;99.90;;;;;;4971128;28;20455;-74
2022/10/24 06:18:41;;;;;;;19.40;18.40;;;18.10;99.90;;;;;;4971069;28;20942;-73
2022/10/24 06:21:09;;;;;;;19.27;18.23;;;17.90;99.90;;;;;;4966028;28;20458;-76
2022/10/24 06:23:36;;;;;;;17.87;17.17;;;17.70;99.90;;;;;;4973533;28;20463;-77
2022/10/24 06:26:08;;;;;;;18.57;17.00;;;17.70;99.90;;;;;;4978308;28;20455;-77
2022/10/24 06:28:35;;;;;;;16.60;15.50;;;17.60;99.90;;;;;;4977473;28;20970;-76
2022/10/24 06:31:03;;;;;;;14.97;13.87;;;17.70;99.90;;;;;;4977426;28;20486;-75
2022/10/24 06:33:30;;;;;;;15.97;14.80;;;17.80;99.90;;;;;;4977902;28;20550;-79
2022/10/24 06:35:59;;;;;;;15.10;14.23;;;17.90;99.90;;;;;;4976866;28;20462;-75
2022/10/24 06:38:26;;;;;;;13.23;12.63;;;17.80;99.90;;;;;;4975812;28;20466;-76
2022/10/24 06:40:53;;;;;;;14.30;13.50;;;17.90;99.90;;;;;;4977573;28;20447;-76
2022/10/24 06:43:20;;;;;;;13.07;12.20;;;17.90;99.90;;;;;;4977448;28;21017;-76
2022/10/24 06:45:46;;;;;;;14.70;13.80;;;18.10;99.90;;;;;;4979285;28;20803;-74
2022/10/24 06:48:14;;;;;;;15.37;14.30;;;18.20;99.90;;;;;;4977512;28;20452;-75
2022/10/24 06:50:41;;;;;;;14.80;13.57;;;18.30;99.90;;;;;;4977309;28;20490;-76
2022/10/24 06:53:08;;;;;;;14.17;12.70;;;18.30;99.90;;;;;;4977761;28;20451;-75
2022/10/24 06:55:38;;;;;;;14.47;13.57;;;18.30;99.90;;;;;;4977303;28;20458;-75
2022/10/24 06:58:05;;;;;;;13.77;12.87;;;18.30;99.90;;;;;;4979042;28;20466;-75
2022/10/24 07:00:32;;;;;;;14.87;13.83;;;;;;;;;;4977151;28;20816;-76
2022/10/24 07:02:59;;;;;;;15.53;14.47;;;18.30;99.90;;;;;;4976739;28;20470;-75
2022/10/24 07:05:27;;;;;;;15.57;14.60;;;18.40;99.90;;;;;;4977033;28;20462;-75
2022/10/24 07:07:54;;;;;;;15.10;14.20;;;18.50;99.90;;;;;;4976899;28;20824;-75
2022/10/24 07:10:20;;;;;;;13.83;13.23;;;18.50;99.90;;;;;;4977039;28;20490;-76
2022/10/24 07:12:47;;;;;;;15.27;14.23;;;18.50;99.90;;;;;;4977163;28;20929;-80
2022/10/24 07:15:14;;;;;;;33.47;31.13;;;18.50;99.90;;;;;;4976884;28;20455;-73
2022/10/24 07:17:42;;;;;;;38.30;35.70;;;18.40;99.90;;;;;;4976844;28;20654;-74
2022/10/24 07:20:10;;;;;;;37.40;35.10;;;18.00;99.90;;;;;;4976644;28;20455;-75
2022/10/24 07:22:39;;;;;;;38.30;35.57;;;17.60;99.90;;;;;;4976467;28;20749;-76
2022/10/24 07:25:07;;;;;;;37.00;34.70;;;17.20;99.90;;;;;;4976978;28;20458;-75
2022/10/24 07:27:34;;;;;;;39.87;36.90;;;17.00;99.90;;;;;;4977243;28;20808;-76
2022/10/24 07:30:01;;;;;;;38.50;35.93;;;16.80;99.90;;;;;;4985324;28;20498;-77
2022/10/24 07:32:28;;;;;;;37.07;34.60;;;16.80;99.90;;;;;;4977502;28;20451;-77
2022/10/24 07:34:54;;;;;;;37.97;35.50;;;16.90;99.90;;;;;;4975627;28;20679;-77
2022/10/24 07:37:21;;;;;;;37.27;34.67;;;16.80;99.90;;;;;;4973693;28;20582;-76
2022/10/24 07:39:49;;;;;;;37.67;35.27;;;16.80;99.90;;;;;;4974398;28;20938;-75
2022/10/24 07:42:17;;;;;;;37.37;35.27;;;16.80;99.90;;;;;;4973127;28;20474;-75
2022/10/24 07:44:44;;;;;;;38.77;36.20;;;16.80;99.90;;;;;;4973302;28;20554;-75
2022/10/24 07:47:11;;;;;;;39.80;37.17;;;16.70;99.90;;;;;;4972976;28;20549;-76
2022/10/24 07:49:38;;;;;;;37.17;34.50;;;16.70;99.90;;;;;;4973239;28;20523;-76
2022/10/24 07:52:06;;;;;;;34.40;32.40;;;16.60;99.90;;;;;;4973566;28;20455;-76
2022/10/24 07:54:32;;;;;;;30.60;29.03;;;16.60;99.90;;;;;;4973630;28;20459;-75
2022/10/24 07:57:00;;;;;;;30.30;28.40;;;16.50;99.90;;;;;;4973429;28;20459;-76
2022/10/24 07:59:28;;;;;;;27.73;25.53;;;16.50;99.90;;;;;;4973108;28;20452;-75
2022/10/24 08:01:55;;;;;;;25.17;23.77;;;16.50;99.90;;;;;;4973314;28;20463;-76
2022/10/24 08:04:22;;;;;;;24.73;23.53;;;16.60;99.90;;;;;;4973230;28;20810;-76
2022/10/24 08:06:48;;;;;;;24.17;22.77;;;16.70;99.90;;;;;;4973419;28;20953;-75
2022/10/24 08:09:15;;;;;;;22.47;21.27;;;16.70;99.90;;;;;;4973065;28;20584;-75
2022/10/24 08:11:42;;;;;;;23.57;22.30;;;16.80;99.90;;;;;;4973043;28;20479;-75
2022/10/24 08:14:10;;;;;;;29.27;27.77;;;16.90;99.90;;;;;;4972622;28;20459;-75
2022/10/24 08:16:37;;;;;;;29.57;27.93;;;16.90;99.90;;;;;;4972896;28;20466;-75
2022/10/24 08:19:04;;;;;;;28.60;26.83;;;16.70;99.90;;;;;;4973136;28;20467;-74
2022/10/24 08:21:32;;;;;;;30.47;28.70;;;16.70;99.90;;;;;;4973053;28;20462;-75
2022/10/24 08:23:59;;;;;;;30.93;29.23;;;16.60;99.90;;;;;;4972585;28;20522;-75
2022/10/24 08:26:26;;;;;;;31.40;29.80;;;16.50;99.90;;;;;;4972723;28;20460;-76
2022/10/24 08:28:54;;;;;;;30.57;29.07;;;16.40;99.90;;;;;;4972248;28;20519;-77
2022/10/24 08:31:24;;;;;;;29.67;27.93;;;16.40;99.90;;;;;;4972221;28;20495;-80
2022/10/24 08:33:53;;;;;;;28.50;27.00;;;16.30;99.90;;;;;;4971980;28;20455;-80
2022/10/24 08:36:23;;;;;;;26.70;25.60;;;16.30;99.90;;;;;;4972728;28;20462;-78
2022/10/24 08:38:49;;;;;;;23.63;22.03;;;16.40;99.90;;;;;;4972955;28;20452;-79
2022/10/24 08:41:24;;;;;;;19.63;18.20;;;16.40;99.90;;;;;;4972799;28;20527;-79
2022/10/24 08:43:52;;;;;;;18.43;17.53;;;16.50;99.90;;;;;;4972692;28;20472;-80
2022/10/24 08:46:35;;;;;;;18.53;17.37;;;16.60;99.90;;;;;;4972564;28;20456;-80
2022/10/24 08:49:10;;;;;;;17.63;16.60;;;16.70;99.90;;;;;;4953564;29;20973;-80
2022/10/24 08:51:41;;;;;;;18.10;17.00;;;16.90;99.90;;;;;;4953197;29;20455;-79
2022/10/24 08:54:12;;;;;;;17.50;16.40;;;17.20;99.90;;;;;;4953053;29;20448;-80
2022/10/24 08:56:39;;;;;;;17.10;15.70;;;17.10;99.90;;;;;;4953062;29;20449;-80
2022/10/24 08:59:09;;;;;;;17.47;16.30;;;17.20;99.90;;;;;;4953053;29;20461;-80
2022/10/24 09:01:42;;;;;;;17.13;16.00;;;17.30;99.90;;;;;;4953190;29;20445;-81
2022/10/24 09:04:13;;;;;;;16.33;15.43;;;17.30;99.90;;;;;;4952760;29;20456;-81
2022/10/24 09:06:40;;;;;;;17.17;16.23;;;17.40;99.90;;;;;;4952484;29;21115;-79
2022/10/24 09:09:15;;;;;;;17.10;15.80;;;17.30;99.90;;;;;;4952560;29;20449;-80
2022/10/24 09:11:47;;;;;;;17.37;16.23;;;17.30;99.90;;;;;;4952621;29;20882;-81
2022/10/24 09:14:16;;;;;;;17.63;16.33;;;17.30;99.90;;;;;;4952897;29;20455;-82
2022/10/24 09:16:49;;;;;;;18.40;17.40;;;17.30;99.90;;;;;;4953935;29;20456;-83
2022/10/24 09:19:20;;;;;;;17.97;16.77;;;17.30;99.90;;;;;;4953134;29;20448;-83
2022/10/24 09:21:48;;;;;;;18.30;16.90;;;17.30;99.90;;;;;;4958751;29;20970;-84
2022/10/24 09:24:28;;;;;;;17.83;16.87;;;17.30;99.90;;;;;;4961284;29;20463;-82
2022/10/24 09:26:55;;;;;;;17.00;15.83;;;17.20;99.90;;;;;;4952203;29;20449;-83
2022/10/24 09:29:23;;;;;;;16.57;15.37;;;17.20;99.90;;;;;;4952266;29;20469;-83
2022/10/24 09:31:51;;;;;;;17.17;16.23;;;17.10;99.90;;;;;;4952951;29;20814;-81
2022/10/24 09:34:17;;;;;;;16.70;15.60;;;17.10;99.90;;;;;;4952820;29;20457;-81
2022/10/24 09:36:45;;;;;;;17.43;16.40;;;17.10;99.90;;;;;;4952621;29;20453;-82
2022/10/24 09:39:28;;;;;;;17.43;16.37;;;17.10;99.90;;;;;;4952845;29;20500;-82
2022/10/24 09:41:55;;;;;;;16.43;15.53;;;17.10;99.90;;;;;;4952874;29;20777;-80
2022/10/24 09:44:34;;;;;;;17.67;16.47;;;17.00;99.90;;;;;;4952261;29;20459;-79
2022/10/24 09:47:05;;;;;;;16.67;15.67;;;16.90;99.90;;;;;;4958314;28;20839;-79
2022/10/24 09:49:35;;;;;;;16.93;15.60;;;16.90;99.90;;;;;;4972133;28;20455;-80
2022/10/24 09:52:13;;;;;;;16.03;14.80;;;16.90;99.90;;;;;;4972089;28;20455;-80
2022/10/24 09:54:40;;;;;;;15.13;14.00;;;17.00;99.90;;;;;;4971614;28;20443;-80
2022/10/24 09:57:14;;;;;;;16.00;15.20;;;17.00;99.90;;;;;;4971130;28;20480;-79
2022/10/24 09:59:43;;;;;;;15.97;14.97;;;17.00;99.90;;;;;;4970849;28;20798;-79
2022/10/24 10:02:27;;;;;;;16.47;15.50;;;17.10;99.90;;;;;;4971362;28;20459;-79
2022/10/24 10:05:18;;;;;;;17.80;16.70;;;17.10;99.90;;;;;;4971167;28;20455;-80
2022/10/24 10:07:47;;;;;;;19.50;17.70;;;17.10;99.90;;;;;;4971315;28;20455;-79
2022/10/24 10:10:25;;;;;;;20.47;19.27;;;17.20;99.90;;;;;;4971090;28;20542;-79
2022/10/24 10:12:58;;;;;;;16.17;15.37;;;17.30;99.90;;;;;;4971532;28;20451;-79
2022/10/24 10:15:29;;;;;;;18.87;17.87;;;17.40;99.90;;;;;;4971248;28;20459;-79
2022/10/24 10:18:01;;;;;;;16.87;15.97;;;17.50;99.90;;;;;;4971516;28;20841;-80
2022/10/24 10:20:31;;;;;;;17.63;16.10;;;17.50;99.90;;;;;;4971509;28;20448;-80
2022/10/24 10:23:16;;;;;;;17.77;16.67;;;17.70;99.90;;;;;;4971266;28;20817;-79
2022/10/24 10:25:43;;;;;;;16.30;15.33;;;17.70;99.90;;;;;;4970565;28;20456;-80
2022/10/24 10:28:20;;;;;;;19.27;17.97;;;17.90;99.90;;;;;;4970313;28;20530;-78
2022/10/24 10:30:50;;;;;;;17.27;16.10;;;17.80;99.90;;;;;;4970993;28;20483;-80
2022/10/24 10:33:23;;;;;;;17.23;16.03;;;17.90;99.90;;;;;;4971329;28;20873;-79
2022/10/24 10:35:56;;;;;;;17.77;16.43;;;17.90;99.90;;;;;;4971129;28;20451;-79
2022/10/24 10:38:50;;;;;;;17.13;15.77;;;18.00;99.90;;;;;;4970717;28;20448;-79
2022/10/24 10:41:37;;;;;;;16.37;15.20;;;18.10;99.90;;;;;;4971186;28;20798;-79
2022/10/24 10:44:19;;;;;;;15.70;14.70;;;18.20;99.90;;;;;;4969883;28;20826;-85
2022/10/24 10:46:57;;;;;;;15.47;14.03;;;18.40;99.90;;;;;;4964491;28;20436;-79
2022/10/24 10:49:30;;;;;;;15.40;14.30;;;18.50;99.90;;;;;;4970768;28;20458;-78
2022/10/24 10:51:58;;;;;;;15.17;13.87;;;18.60;99.90;;;;;;4970542;28;20490;-79
2022/10/24 10:54:59;;;;;;;15.93;15.10;;;18.70;99.90;;;;;;4970609;28;20460;-77
2022/10/24 10:57:33;;;;;;;14.77;13.80;;;18.70;99.90;;;;;;4969882;28;20462;-77
2022/10/24 11:00:06;;;;;;;15.73;14.83;;;18.80;99.90;;;;;;4970871;28;20623;-77
2022/10/24 11:02:50;;;;;;;14.23;13.43;;;18.80;99.90;;;;;;4951969;28;20555;-77
2022/10/24 11:05:39;;;;;;;16.37;15.27;;;18.70;99.90;;;;;;4951873;29;20471;-77
2022/10/24 11:08:19;;;;;;;15.20;14.20;;;18.80;99.90;;;;;;4951478;29;20460;-77
2022/10/24 11:10:51;;;;;;;14.27;13.03;;;18.80;99.90;;;;;;4954051;28;20488;-77
2022/10/24 11:13:22;;;;;;;14.70;13.70;;;18.70;99.90;;;;;;4955001;29;20464;-77
2022/10/24 11:15:52;;;;;;;12.90;12.40;;;18.70;99.90;;;;;;4955166;29;20444;-77
2022/10/24 11:18:25;;;;;;;14.70;13.80;;;18.70;99.90;;;;;;4964367;28;20452;-77
2022/10/24 11:20:59;;;;;;;12.90;12.20;;;18.70;99.90;;;;;;4974208;28;20459;-76
2022/10/24 11:23:33;;;;;;;13.13;12.53;;;18.70;99.90;;;;;;4974012;28;20451;-76
2022/10/24 11:26:05;;;;;;;13.53;12.80;;;18.70;99.90;;;;;;4974059;28;20455;-77
2022/10/24 11:28:38;;;;;;;12.73;12.23;;;18.70;99.90;;;;;;4970609;28;20464;-78
2022/10/24 11:31:10;;;;;;;15.00;14.00;;;18.60;99.90;;;;;;4973365;28;20499;-79
2022/10/24 11:33:42;;;;;;;13.07;12.50;;;18.60;99.90;;;;;;4973457;28;20743;-79
2022/10/24 11:36:17;;;;;;;13.40;12.73;;;18.60;99.90;;;;;;4973381;28;20970;-79
2022/10/24 11:38:51;;;;;;;13.10;12.50;;;18.60;99.90;;;;;;4973198;28;20466;-78
2022/10/24 11:41:33;;;;;;;12.30;11.80;;;18.70;99.90;;;;;;4973740;28;20450;-78
2022/10/24 11:44:06;;;;;;;11.73;11.30;;;18.60;99.90;;;;;;4973330;28;20456;-79
2022/10/24 11:46:38;;;;;;;13.00;12.40;;;18.80;99.90;;;;;;4973591;28;20460;-78
2022/10/24 11:49:15;;;;;;;12.77;12.17;;;18.80;99.90;;;;;;4973362;28;20455;-76
2022/10/24 11:51:50;;;;;;;13.37;12.50;;;18.80;99.90;;;;;;4972939;28;20491;-76
2022/10/24 11:54:22;;;;;;;13.30;12.60;;;18.90;99.90;;;;;;4973429;28;20473;-77
2022/10/24 11:56:53;;;;;;;15.13;14.17;;;19.00;99.90;;;;;;4973477;28;20813;-76
2022/10/24 11:59:23;;;;;;;13.13;12.53;;;19.00;99.90;;;;;;4973118;28;20466;-77
2022/10/24 12:02:29;;;;;;;13.17;12.27;;;19.00;99.90;;;;;;4973324;28;20466;-77
2022/10/24 12:05:16;;;;;;;13.37;12.60;;;19.10;99.90;;;;;;4973041;28;21087;-78
2022/10/24 12:08:21;;;;;;;13.67;12.87;;;19.10;99.90;;;;;;4972953;28;20976;-77
2022/10/24 12:11:21;;;;;;;13.30;12.60;;;19.10;99.90;;;;;;4966530;28;20491;-77
2022/10/24 12:14:22;;;;;;;13.87;13.00;;;19.10;99.90;;;;;;4959460;28;20451;-77
2022/10/24 12:17:04;;;;;;;14.53;13.73;;;19.00;99.90;;;;;;4966233;28;20451;-77
2022/10/24 12:19:32;;;;;;;13.57;12.77;;;19.00;99.90;;;;;;4973099;28;20458;-78
2022/10/24 12:22:03;;;;;;;12.80;12.10;;;19.00;99.90;;;;;;4971922;28;20506;-80
2022/10/24 12:24:34;;;;;;;13.57;12.77;;;19.00;99.90;;;;;;4972889;28;20458;-79
2022/10/24 12:27:03;;;;;;;14.10;12.80;;;18.90;99.90;;;;;;4972791;28;20447;-80
2022/10/24 12:29:32;;;;;;;12.20;11.60;;;18.90;99.90;;;;;;4972547;28;20460;-78
2022/10/24 12:32:19;;;;;;;13.13;12.30;;;18.90;99.90;;;;;;4972213;28;20487;-79
2022/10/24 12:34:57;;;;;;;11.53;11.13;;;18.90;99.90;;;;;;4972403;28;20460;-78
2022/10/24 12:37:35;;;;;;;12.07;11.47;;;18.90;99.90;;;;;;4972442;28;20459;-78
2022/10/24 12:40:35;;;;;;;11.90;11.40;;;18.80;99.90;;;;;;4972393;28;20458;-78
2022/10/24 12:43:14;;;;;;;12.80;12.00;;;18.90;99.90;;;;;;4972393;28;20451;-77
2022/10/24 12:45:41;;;;;;;11.57;11.10;;;19.00;99.90;;;;;;4972187;28;20447;-77
2022/10/24 12:48:30;;;;;;;12.47;11.83;;;19.10;99.90;;;;;;4972123;28;20802;-78
2022/10/24 12:50:59;;;;;;;12.27;11.67;;;19.00;99.90;;;;;;4970426;28;20519;-77
2022/10/24 12:53:39;;;;;;;12.00;10.77;;;19.00;99.90;;;;;;4972184;28;20467;-76
2022/10/24 12:56:13;;;;;;;12.67;12.07;;;19.00;99.90;;;;;;4972214;28;20764;-77
2022/10/24 12:58:42;;;;;;;11.60;11.20;;;19.10;99.90;;;;;;4971880;28;20815;-76
2022/10/24 13:01:21;;;;;;;11.33;10.83;;;18.90;99.90;;;;;;4971967;28;20953;-77
2022/10/24 13:04:08;;;;;;;11.67;11.17;;;19.10;99.90;;;;;;4971946;28;21056;-77
2022/10/24 13:06:47;;;;;;;11.40;11.00;;;19.20;99.90;;;;;;4969552;28;20471;-76
2022/10/24 13:09:27;;;;;;;11.80;11.03;;;19.30;99.90;;;;;;4965857;28;20444;-75
2022/10/24 13:12:04;;;;;;;11.33;10.77;;;19.40;99.90;;;;;;4966397;28;20496;-75
2022/10/24 13:14:50;;;;;;;11.63;11.23;;;19.30;99.90;;;;;;4970598;28;20456;-77
2022/10/24 13:17:27;;;;;;;11.57;11.17;;;19.30;99.90;;;;;;4971111;28;20447;-76
2022/10/24 13:20:04;;;;;;;12.30;11.50;;;19.40;99.90;;;;;;4971975;28;20972;-77
2022/10/24 13:22:35;;;;;;;12.50;11.90;;;19.50;99.90;;;;;;4969605;28;20813;-77
2022/10/24 13:25:18;;;;;;;12.37;11.63;;;19.40;99.90;;;;;;4971596;28;20459;-77
2022/10/24 13:27:45;;;;;;;14.00;13.17;;;19.40;99.90;;;;;;4971635;28;20450;-77
2022/10/24 13:30:34;;;;;;;11.93;11.23;;;19.40;99.90;;;;;;4971186;28;20494;-76
2022/10/24 13:33:39;;;;;;;12.23;11.63;;;19.40;99.90;;;;;;4970701;28;20451;-77
2022/10/24 13:36:16;;;;;;;11.83;11.40;;;19.40;99.90;;;;;;4971429;28;20456;-77
2022/10/24 13:38:48;;;;;;;12.73;11.70;;;19.40;99.90;;;;;;4971353;28;20972;-77
2022/10/24 13:41:23;;;;;;;12.87;11.97;;;19.40;99.90;;;;;;4970952;28;20937;-76
2022/10/24 13:43:52;;;;;;;10.97;10.43;;;19.30;99.90;;;;;;4971111;28;20455;-76
2022/10/24 13:46:30;;;;;;;11.10;10.60;;;19.30;99.90;;;;;;4971200;28;20528;-76
2022/10/24 13:48:58;;;;;;;11.67;11.17;;;19.30;99.90;;;;;;4970862;28;20455;-77
2022/10/24 13:51:28;;;;;;;12.57;11.97;;;19.30;99.90;;;;;;4970559;28;20491;-76
2022/10/24 13:54:00;;;;;;;11.60;11.03;;;19.30;99.90;;;;;;4970990;28;20455;-77
2022/10/24 13:56:30;;;;;;;11.30;10.70;;;19.20;99.90;;;;;;4970836;28;21008;-75
2022/10/24 13:58:57;;;;;;;12.07;11.47;;;19.10;99.90;;;;;;4970795;28;20472;-77
2022/10/24 14:01:28;;;;;;;11.47;11.10;;;19.00;99.90;;;;;;4970683;28;20817;-75
2022/10/24 14:03:57;;;;;;;12.30;11.90;;;19.10;99.90;;;;;;4970503;28;20498;-78
2022/10/24 14:06:25;;;;;;;12.40;11.80;;;19.00;99.90;;;;;;4970426;28;20749;-76
2022/10/24 14:08:54;;;;;;;12.40;11.90;;;19.00;99.90;;;;;;4970767;28;20456;-77
2022/10/24 14:11:24;;;;;;;11.50;11.10;;;19.00;99.90;;;;;;4970387;28;20491;-77
2022/10/24 14:13:53;;;;;;;12.00;11.50;;;18.90;99.90;;;;;;4970501;28;20466;-78
2022/10/24 14:16:25;;;;;;;12.43;11.63;;;19.00;99.90;;;;;;4976463;28;20451;-78
2022/10/24 14:19:09;;;;;;;11.83;11.20;;;19.00;99.90;;;;;;4980542;28;20442;-77